Time;durP1;ratioP1;P1;durP2;ratioP2;P2;SDS_P1;SDS_P2;PMS_P1;PMS_P2;Temp;Humidity;BMP_temperature;BMP_pressure;BME280_temperature;BME280_humidity;BME280_pressure;Samples;Min_cycle;Max_cycle;Signal;HPM_P1;HPM_P2
2022/08/17 00:00:42;;;;;;;1.60;1.50;;;;;;;24.97;61.17;96954.84;5051114;28;20287;-31
2022/08/17 00:03:19;;;;;;;1.20;1.20;;;;;;;24.98;61.46;96953.13;5050268;28;20219;-31
2022/08/17 00:05:51;;;;;;;1.53;1.43;;;;;;;24.97;61.07;96951.41;5050702;28;20220;-31
2022/08/17 00:08:30;;;;;;;1.30;1.30;;;;;;;24.98;61.02;96963.41;5051153;28;20267;-31
2022/08/17 00:10:57;;;;;;;1.20;1.20;;;;;;;24.97;61.50;96957.44;5050190;28;20243;-31
2022/08/17 00:13:26;;;;;;;1.50;1.40;;;;;;;24.98;61.21;96955.69;5037939;28;20627;-31
2022/08/17 00:15:58;;;;;;;1.20;1.20;;;;;;;24.95;61.30;96953.97;5053620;28;20256;-30
2022/08/17 00:18:26;;;;;;;1.40;1.30;;;;;;;24.99;61.25;96957.44;5050432;28;20268;-30
2022/08/17 00:21:13;;;;;;;1.47;1.37;;;;;;;24.92;61.46;96948.81;5058897;28;20299;-31
2022/08/17 00:23:41;;;;;;;1.30;1.30;;;;;;;24.99;61.35;96960.00;5046834;28;20228;-31
2022/08/17 00:26:14;;;;;;;1.40;1.30;;;;;;;25.00;61.52;96961.72;5044995;28;20208;-31
2022/08/17 00:29:01;;;;;;;1.40;1.37;;;;;;;24.99;61.34;96958.28;5050043;28;20215;-31
2022/08/17 00:31:28;;;;;;;1.37;1.30;;;;;;;24.98;61.36;96954.00;5060419;28;20287;-31
2022/08/17 00:33:54;;;;;;;1.33;1.30;;;;;;;24.97;61.55;96948.84;5067974;28;20259;-31
2022/08/17 00:36:22;;;;;;;1.40;1.30;;;;;;;24.98;60.67;96943.72;5053379;28;20580;-31
2022/08/17 00:38:49;;;;;;;1.60;1.50;;;;;;;24.99;61.16;96944.59;5050590;28;20240;-31
2022/08/17 00:41:18;;;;;;;1.40;1.30;;;;;;;24.98;61.07;96940.28;5054157;28;20624;-30
2022/08/17 00:43:53;;;;;;;1.33;1.30;;;;;;;24.98;61.10;96938.56;5059100;28;20258;-31
2022/08/17 00:46:23;;;;;;;1.50;1.40;;;;;;;24.96;61.30;96937.69;5054463;28;20320;-30
2022/08/17 00:48:50;;;;;;;1.50;1.40;;;;;;;24.98;61.11;96942.84;5060028;28;20238;-31
2022/08/17 00:51:41;;;;;;;1.63;1.53;;;;;;;24.97;61.13;96942.00;5050180;28;20299;-31
2022/08/17 00:54:17;;;;;;;1.50;1.40;;;;;;;24.95;61.58;96930.84;5041821;28;20303;-31
2022/08/17 00:56:46;;;;;;;1.30;1.30;;;;;;;24.91;61.36;96925.66;5032933;28;20239;-30
2022/08/17 00:59:15;;;;;;;1.30;1.20;;;;;;;24.97;61.29;96936.84;5024095;28;20291;-31
2022/08/17 01:01:41;;;;;;;1.30;1.30;;;;;;;24.96;61.29;96937.69;5033727;28;20303;-31
2022/08/17 01:04:08;;;;;;;1.50;1.40;;;;;;;24.99;61.36;96939.44;5038439;28;20311;-31
2022/08/17 01:06:35;;;;;;;1.50;1.40;;;;;;;24.99;61.22;96939.44;5032674;28;20239;-31
2022/08/17 01:09:02;;;;;;;1.47;1.37;;;;;;;24.98;61.20;96933.44;5034818;28;20196;-31
2022/08/17 01:11:29;;;;;;;1.53;1.43;;;;;;;24.99;61.60;96936.88;5053819;28;20239;-31
2022/08/17 01:13:56;;;;;;;1.50;1.40;;;;;;;24.99;61.29;96934.31;5049547;28;20308;-30
2022/08/17 01:16:27;;;;;;;1.40;1.30;;;;;;;24.98;61.33;96932.56;5063162;28;20258;-31
2022/08/17 01:18:56;;;;;;;1.20;1.20;;;;;;;24.99;61.67;96936.88;5045116;28;20235;-31
2022/08/17 01:21:37;;;;;;;1.50;1.40;;;;;;;24.90;61.33;96927.38;5043561;28;20641;-31
2022/08/17 01:24:04;;;;;;;1.30;1.30;;;;;;;24.97;61.54;96930.84;5035457;28;20255;-31
2022/08/17 01:26:31;;;;;;;1.50;1.40;;;;;;;24.86;61.37;96915.34;5055866;28;20232;-31
2022/08/17 01:28:59;;;;;;;1.30;1.30;;;;;;;24.97;61.37;96929.16;5044908;28;20611;-31
2022/08/17 01:31:28;;;;;;;1.57;1.47;;;;;;;24.98;61.16;96933.44;5049375;28;20596;-31
2022/08/17 01:33:57;;;;;;;1.70;1.60;;;;;;;24.98;61.33;96928.28;5044941;28;20312;-31
2022/08/17 01:36:23;;;;;;;1.67;1.57;;;;;;;24.97;61.54;96930.84;5031452;28;20656;-31
2022/08/17 01:38:50;;;;;;;1.50;1.40;;;;;;;24.97;61.36;96934.28;5050494;28;20259;-31
2022/08/17 01:41:16;;;;;;;1.20;1.20;;;;;;;24.97;61.30;96934.28;5049751;28;20258;-31
2022/08/17 01:43:44;;;;;;;1.50;1.40;;;;;;;24.99;61.30;96936.88;5015359;28;20471;-30
2022/08/17 01:46:19;;;;;;;1.50;1.40;;;;;;;24.98;61.47;96932.56;5050073;28;20236;-30
2022/08/17 01:48:46;;;;;;;1.20;1.20;;;;;;;24.99;61.56;96939.44;5049072;28;20205;-31
2022/08/17 01:51:14;;;;;;;1.30;1.30;;;;;;;24.97;61.43;96933.41;5059528;28;20239;-31
2022/08/17 01:53:42;;;;;;;1.50;1.40;;;;;;;24.98;61.20;96925.72;5058270;28;20232;-32
2022/08/17 01:56:10;;;;;;;1.50;1.40;;;;;;;24.98;61.43;96923.16;5028929;28;20545;-31
2022/08/17 01:58:36;;;;;;;1.80;1.70;;;;;;;24.98;61.45;96923.16;5034635;28;20262;-31
2022/08/17 02:01:04;;;;;;;1.50;1.40;;;;;;;24.99;61.60;96931.72;5044726;28;20494;-30
2022/08/17 02:03:31;;;;;;;1.20;1.20;;;;;;;24.99;61.34;96924.00;5056282;28;20676;-31
2022/08/17 02:05:58;;;;;;;1.63;1.53;;;;;;;24.99;61.35;96927.41;5052721;28;20626;-31
2022/08/17 02:08:25;;;;;;;1.40;1.30;;;;;;;24.96;61.79;96921.44;5052946;28;20364;-31
2022/08/17 02:11:10;;;;;;;1.20;1.20;;;;;;;24.99;61.33;96927.41;5053999;28;20621;-31
2022/08/17 02:13:37;;;;;;;1.30;1.20;;;;;;;24.98;61.49;96918.00;5052455;28;20652;-31
2022/08/17 02:16:04;;;;;;;1.40;1.30;;;;;;;24.96;61.25;96922.25;5060923;28;20235;-31
2022/08/17 02:18:30;;;;;;;1.50;1.40;;;;;;;24.98;61.34;96915.44;5052778;28;20232;-31
2022/08/17 02:20:57;;;;;;;1.60;1.50;;;;;;;24.97;61.22;96916.28;5052676;28;20236;-31
2022/08/17 02:23:24;;;;;;;1.50;1.40;;;;;;;24.92;61.62;96905.13;5046482;28;20243;-31
2022/08/17 02:25:50;;;;;;;1.50;1.40;;;;;;;24.96;61.30;96908.56;5023328;28;20691;-31
2022/08/17 02:28:17;;;;;;;1.47;1.40;;;;;;;24.90;61.57;96896.53;5030264;28;20291;-31
2022/08/17 02:30:44;;;;;;;1.60;1.50;;;;;;;24.97;61.29;96908.56;5058484;28;20244;-31
2022/08/17 02:33:29;;;;;;;1.50;1.40;;;;;;;24.95;61.21;96900.00;5050129;28;20292;-31
2022/08/17 02:36:09;;;;;;;1.47;1.40;;;;;;;24.98;61.08;96905.16;5037670;28;20715;-30
2022/08/17 02:38:36;;;;;;;1.30;1.30;;;;;;;24.95;61.36;96899.13;5053102;28;20288;-31
2022/08/17 02:41:03;;;;;;;1.73;1.63;;;;;;;24.95;61.46;96901.69;5053383;28;20680;-31
2022/08/17 02:43:30;;;;;;;1.50;1.40;;;;;;;24.98;61.62;96905.16;5052980;28;20205;-31
2022/08/17 02:45:56;;;;;;;1.30;1.30;;;;;;;24.99;61.42;96906.84;5052376;28;20295;-31
2022/08/17 02:48:23;;;;;;;1.50;1.40;;;;;;;24.99;61.65;96899.16;5050652;28;20231;-31
2022/08/17 02:50:57;;;;;;;1.50;1.40;;;;;;;24.98;61.25;96894.00;5051389;28;20283;-31
2022/08/17 02:53:23;;;;;;;1.43;1.33;;;;;;;24.98;61.39;96894.00;5048178;28;20236;-31
2022/08/17 02:55:51;;;;;;;1.33;1.33;;;;;;;24.98;61.28;96892.28;5051532;28;20243;-31
2022/08/17 02:58:18;;;;;;;1.70;1.60;;;;;;;24.97;61.63;96890.59;5054585;28;20213;-31
2022/08/17 03:01:04;;;;;;;1.43;1.33;;;;;;;24.98;61.62;96897.44;5051585;28;20595;-31
2022/08/17 03:03:31;;;;;;;1.60;1.50;;;;;;;24.96;61.37;96891.41;5048756;28;20283;-31
2022/08/17 03:05:58;;;;;;;1.20;1.20;;;;;;;24.98;61.63;96894.00;5051163;28;20233;-31
2022/08/17 03:08:24;;;;;;;1.40;1.30;;;;;;;24.97;61.71;96893.16;5048367;28;20685;-31
2022/08/17 03:10:51;;;;;;;1.60;1.50;;;;;;;24.95;61.57;96888.84;5052213;28;20732;-31
2022/08/17 03:13:18;;;;;;;1.53;1.43;;;;;;;24.97;61.47;96884.56;5050385;28;20208;-31
2022/08/17 03:15:44;;;;;;;1.57;1.47;;;;;;;24.97;61.68;96889.72;5081107;22;20327;-21
2022/08/17 03:18:12;;;;;;;1.60;1.50;;;;;;;24.97;61.34;96885.44;5068875;28;20240;-21
2022/08/17 03:20:50;;;;;;;1.40;1.30;;;;;;;24.98;61.53;96886.28;5068827;28;20291;-21
2022/08/17 03:23:17;;;;;;;1.40;1.30;;;;;;;24.98;61.30;96876.00;5050842;28;20651;-22
2022/08/17 03:25:49;;;;;;;1.60;1.50;;;;;;;24.99;61.44;96895.72;5050849;28;20221;-21
2022/08/17 03:28:18;;;;;;;1.50;1.43;;;;;;;24.98;61.49;96887.16;5049101;28;20201;-21
2022/08/17 03:30:45;;;;;;;1.40;1.30;;;;;;;24.99;61.32;96888.84;5048738;28;20244;-21
2022/08/17 03:33:12;;;;;;;1.50;1.40;;;;;;;24.98;61.28;96879.44;5049166;28;20213;-21
2022/08/17 03:35:39;;;;;;;1.50;1.40;;;;;;;24.97;61.37;96877.72;5047877;28;20696;-21
2022/08/17 03:38:06;;;;;;;1.50;1.40;;;;;;;24.99;61.55;96883.72;5045856;28;20205;-21
2022/08/17 03:40:33;;;;;;;1.50;1.40;;;;;;;24.98;61.43;96882.00;5046661;28;20300;-21
2022/08/17 03:43:20;;;;;;;1.60;1.50;;;;;;;24.98;61.36;96882.00;5042048;28;20313;-21
2022/08/17 03:57:08;;;;;;;1.30;1.30;;;;;;;24.97;61.42;96900.88;5039870;28;20663;-21
2022/08/17 03:59:35;;;;;;;1.60;1.50;;;;;;;24.96;61.54;96898.28;5048537;28;20296;-21
2022/08/17 04:02:08;;;;;;;1.60;1.50;;;;;;;24.89;61.20;96891.38;5048192;28;20288;-21
2022/08/17 04:04:35;;;;;;;1.50;1.40;;;;;;;24.97;61.38;96902.56;5015430;28;20332;-21
2022/08/17 04:07:02;;;;;;;1.33;1.33;;;;;;;24.97;61.34;96906.00;5048180;28;20291;-21
2022/08/17 04:09:29;;;;;;;1.70;1.60;;;;;;;24.97;61.27;96906.00;5048526;28;20201;-21
2022/08/17 04:11:56;;;;;;;1.57;1.40;;;;;;;24.97;61.65;96913.72;5048103;28;20291;-21
2022/08/17 04:14:34;;;;;;;1.57;1.47;;;;;;;24.98;61.38;96923.16;5047682;28;20588;-21
2022/08/17 04:17:18;;;;;;;1.60;1.50;;;;;;;24.98;61.53;96918.00;5048547;28;20315;-21
2022/08/17 04:19:45;;;;;;;1.60;1.50;;;;;;;24.97;61.69;96918.88;5048017;28;20209;-21
2022/08/17 04:22:12;;;;;;;1.53;1.43;;;;;;;24.97;61.74;96920.56;5048123;28;20233;-21
2022/08/17 04:24:56;;;;;;;1.67;1.57;;;;;;;24.97;61.38;96916.28;5046787;28;20230;-21
2022/08/17 04:27:24;;;;;;;1.70;1.60;;;;;;;24.98;61.46;96920.56;5048093;28;20568;-21
2022/08/17 04:29:50;;;;;;;1.70;1.60;;;;;;;24.97;61.47;96921.44;5047795;28;20244;-21
2022/08/17 04:32:21;;;;;;;1.60;1.50;;;;;;;24.97;61.30;96916.28;5048209;28;20277;-21
2022/08/17 04:35:08;;;;;;;1.77;1.67;;;;;;;24.98;61.20;96917.13;5039722;28;20618;-21
2022/08/17 04:37:35;;;;;;;1.60;1.50;;;;;;;24.97;61.18;96928.28;5048712;28;20974;-21
2022/08/17 04:43:03;;;;;;;1.67;1.57;;;;;;;24.98;61.70;96925.72;5047800;28;20740;-21
2022/08/17 04:45:30;;;;;;;1.60;1.50;;;;;;;24.96;61.04;96945.41;5042660;28;20308;-21
2022/08/17 04:47:59;;;;;;;1.67;1.57;;;;;;;24.98;61.63;96919.69;5047650;28;20212;-21
2022/08/17 04:50:26;;;;;;;1.40;1.30;;;;;;;24.97;61.34;96916.28;5042396;28;20220;-21
2022/08/17 04:52:52;;;;;;;1.60;1.43;;;;;;;24.98;61.45;96925.72;5047502;28;20294;-21
2022/08/17 04:55:19;;;;;;;1.30;1.30;;;;;;;24.98;61.35;96924.84;5047402;28;20228;-21
2022/08/17 04:57:46;;;;;;;1.77;1.67;;;;;;;24.98;61.31;96932.56;5047795;28;20240;-21
2022/08/17 05:00:13;;;;;;;1.67;1.57;;;;;;;24.99;61.51;96939.44;5047519;28;20295;-21
2022/08/17 05:02:49;;;;;;;1.60;1.50;;;;;;;24.98;61.51;96951.41;5048126;28;20236;-21
2022/08/17 05:05:20;;;;;;;1.70;1.60;;;;;;;24.99;61.58;96947.16;5042619;28;20706;-21
2022/08/17 05:07:49;;;;;;;1.70;1.60;;;;;;;24.99;61.50;96955.69;5047639;28;20287;-21
2022/08/17 05:10:16;;;;;;;1.60;1.50;;;;;;;24.99;61.47;96945.41;5047957;28;20236;-21
2022/08/17 05:12:42;;;;;;;1.60;1.50;;;;;;;24.99;61.59;96947.16;5041049;28;20236;-21
2022/08/17 05:15:11;;;;;;;1.60;1.50;;;;;;;25.00;61.72;96948.88;5047086;28;20315;-21
2022/08/17 05:17:37;;;;;;;1.60;1.50;;;;;;;25.00;61.49;96954.00;5047491;28;20754;-21
2022/08/17 05:20:04;;;;;;;1.80;1.70;;;;;;;25.00;61.32;96956.56;5047114;28;20735;-21
2022/08/17 05:22:31;;;;;;;1.70;1.60;;;;;;;24.99;61.46;96953.13;5047623;28;20296;-21
2022/08/17 05:24:58;;;;;;;1.60;1.50;;;;;;;25.00;61.21;96948.88;5047082;28;20228;-22
2022/08/17 05:27:27;;;;;;;1.73;1.63;;;;;;;24.99;61.21;96944.59;5048635;28;20200;-21
2022/08/17 05:30:01;;;;;;;1.53;1.43;;;;;;;24.98;61.20;96935.13;5051207;28;20201;-21
2022/08/17 05:32:27;;;;;;;1.40;1.40;;;;;;;24.99;61.25;96930.00;5051886;28;20669;-21
2022/08/17 05:35:13;;;;;;;1.70;1.60;;;;;;;24.99;61.36;96931.72;5050967;28;20231;-22
2022/08/17 05:37:39;;;;;;;1.87;1.77;;;;;;;24.99;61.21;96934.31;5017245;28;20267;-21
2022/08/17 05:40:06;;;;;;;1.60;1.50;;;;;;;24.99;61.36;96935.13;5051330;28;20252;-20
2022/08/17 05:42:33;;;;;;;1.80;1.70;;;;;;;25.01;61.62;96946.31;5051051;28;20585;-21
2022/08/17 05:45:00;;;;;;;1.63;1.53;;;;;;;25.01;61.43;96937.72;5051078;28;20788;-21
2022/08/17 05:47:26;;;;;;;1.73;1.63;;;;;;;25.00;61.58;96942.03;5051204;28;20792;-21
2022/08/17 05:49:53;;;;;;;1.33;1.30;;;;;;;25.01;61.27;96941.16;5032907;28;20203;-21
2022/08/17 05:52:19;;;;;;;1.70;1.60;;;;;;;25.01;61.33;96940.28;5032782;28;20236;-21
2022/08/17 05:55:04;;;;;;;1.60;1.50;;;;;;;25.01;61.52;96940.28;5051083;28;20657;-21
2022/08/17 05:57:40;;;;;;;1.60;1.50;;;;;;;25.01;61.61;96943.72;5032973;28;20327;-21
2022/08/17 06:00:24;;;;;;;1.80;1.70;;;;;;;25.01;61.17;96945.44;5031453;28;20403;-21
2022/08/17 06:03:14;;;;;;;1.63;1.53;;;;;;;25.01;61.24;96943.72;5033526;28;20208;-20
2022/08/17 06:06:03;;;;;;;1.67;1.57;;;;;;;25.01;61.39;96945.44;5050559;28;20315;-21
2022/08/17 06:08:39;;;;;;;1.80;1.70;;;;;;;24.93;61.54;96937.66;5032864;28;20204;-21
2022/08/17 06:11:30;;;;;;;1.60;1.50;;;;;;;25.01;61.43;96948.00;5024860;28;20205;-21
2022/08/17 06:14:00;;;;;;;1.80;1.70;;;;;;;25.01;61.17;96958.28;5032785;28;20208;-21
2022/08/17 06:16:30;;;;;;;1.70;1.60;;;;;;;25.00;61.15;96970.31;5050346;28;20311;-21
2022/08/17 06:19:21;;;;;;;1.43;1.33;;;;;;;24.99;61.56;96958.28;5017848;28;20208;-21
2022/08/17 06:21:50;;;;;;;1.73;1.63;;;;;;;25.00;61.65;96952.31;5032725;28;20288;-21
2022/08/17 06:24:20;;;;;;;1.70;1.60;;;;;;;25.00;61.13;96954.88;5032678;28;20781;-21
2022/08/17 06:26:47;;;;;;;1.80;1.70;;;;;;;25.01;61.59;96964.31;5031753;28;20201;-20
2022/08/17 06:29:14;;;;;;;1.57;1.47;;;;;;;25.01;61.49;96960.84;5050718;28;20261;-21
2022/08/17 06:31:44;;;;;;;1.60;1.50;;;;;;;24.92;61.20;96953.94;5050169;28;20293;-21
2022/08/17 06:34:10;;;;;;;1.80;1.70;;;;;;;25.00;61.09;96966.84;5022327;28;20301;-21
2022/08/17 06:37:00;;;;;;;1.87;1.77;;;;;;;25.01;61.43;96974.59;5031756;28;20252;-21
2022/08/17 06:39:38;;;;;;;1.70;1.60;;;;;;;25.01;61.50;96974.59;5029547;28;20201;-21
2022/08/17 06:42:10;;;;;;;1.60;1.50;;;;;;;25.02;61.34;96968.59;5049749;28;20284;-20
2022/08/17 06:45:02;;;;;;;1.83;1.73;;;;;;;25.02;61.14;96972.88;5050162;28;20225;-21
2022/08/17 06:47:48;;;;;;;1.50;1.40;;;;;;;24.94;61.22;96964.25;5032679;28;20750;-21
2022/08/17 06:50:28;;;;;;;1.77;1.67;;;;;;;23.63;61.16;96736.28;5027188;28;20205;-21
2022/08/17 06:52:58;;;;;;;1.70;1.60;;;;;;;25.01;61.35;96971.13;5033108;28;20296;-21
2022/08/17 06:55:28;;;;;;;1.80;1.70;;;;;;;25.02;61.39;96973.72;5031854;28;20248;-21
2022/08/17 06:58:05;;;;;;;1.80;1.70;;;;;;;25.02;61.58;96967.75;5032733;28;20720;-21
2022/08/17 07:00:43;;;;;;;1.63;1.53;;;;;;;24.92;61.68;96956.53;5049839;28;20205;-21
2022/08/17 07:03:36;;;;;;;1.70;1.60;;;;;;;25.01;61.43;96963.44;5015766;28;20538;-21
2022/08/17 07:06:15;;;;;;;1.70;1.60;;;;;;;25.02;61.09;96967.75;5014943;28;20315;-21
2022/08/17 07:08:54;;;;;;;1.67;1.57;;;;;;;25.01;61.09;96974.59;5032558;28;20228;-20
2022/08/17 07:11:57;;;;;;;1.60;1.50;;;;;;;25.02;61.57;96983.16;5016681;28;20296;-21
2022/08/17 07:14:37;;;;;;;1.50;1.40;;;;;;;25.02;61.53;96985.75;5025403;28;20680;-20
2022/08/17 07:17:07;;;;;;;1.90;1.80;;;;;;;24.72;61.18;96934.13;5048657;28;20216;-21
2022/08/17 07:19:34;;;;;;;1.57;1.47;;;;;;;24.93;61.08;96973.66;5031703;28;20783;-21
2022/08/17 07:22:04;;;;;;;1.80;1.70;;;;;;;25.03;61.54;97002.88;5031182;28;20299;-21
2022/08/17 07:24:57;;;;;;;1.73;1.63;;;;;;;25.03;61.29;97008.03;5049133;28;20252;-21
2022/08/17 07:27:34;;;;;;;1.80;1.70;;;;;;;25.03;61.20;97006.31;5021045;28;20197;-21
2022/08/17 07:30:07;;;;;;;1.30;1.30;;;;;;;25.03;61.19;97008.88;5043218;28;20642;-21
2022/08/17 07:32:36;;;;;;;1.60;1.50;;;;;;;25.03;61.50;97008.03;5048812;28;20204;-21
2022/08/17 07:35:20;;;;;;;1.83;1.73;;;;;;;25.02;61.65;96999.44;5048602;28;20228;-21
2022/08/17 07:37:54;;;;;;;1.70;1.60;;;;;;;24.93;61.40;96981.38;5048761;28;20935;-21
2022/08/17 07:40:40;;;;;;;1.70;1.60;;;;;;;25.03;61.49;96992.59;5015529;28;20652;-21
2022/08/17 07:43:14;;;;;;;1.80;1.70;;;;;;;25.01;61.21;96984.88;5047476;28;20596;-21
2022/08/17 07:49:38;;;;;;;1.60;1.50;;;;;;;25.02;61.13;96998.59;5048087;28;20236;-21
2022/08/17 07:52:10;;;;;;;1.63;1.53;;;;;;;25.01;61.36;96999.41;5043143;28;20254;-21
2022/08/17 07:54:56;;;;;;;1.70;1.60;;;;;;;24.93;61.13;96993.38;5048139;28;20634;-21
2022/08/17 07:57:29;;;;;;;1.67;1.57;;;;;;;24.95;61.32;96997.69;5026076;28;20319;-21
2022/08/17 07:59:58;;;;;;;1.60;1.50;;;;;;;25.02;61.55;97011.44;5030723;28;20295;-21
2022/08/17 08:02:33;;;;;;;1.80;1.70;;;;;;;25.02;61.39;97007.16;5043112;28;20261;-21
2022/08/17 08:05:03;;;;;;;1.70;1.60;;;;;;;25.03;61.49;97014.03;5028695;28;20751;-21
2022/08/17 08:07:38;;;;;;;1.50;1.40;;;;;;;24.78;61.25;96965.00;5044213;28;20764;-21
2022/08/17 08:10:08;;;;;;;1.80;1.70;;;;;;;25.04;61.11;97007.16;5021295;28;20228;-21
2022/08/17 08:12:42;;;;;;;1.77;1.67;;;;;;;25.03;61.52;97010.59;5029841;28;20600;-21
2022/08/17 08:15:17;;;;;;;1.60;1.50;;;;;;;25.03;61.07;97016.59;5022958;28;20318;-21
2022/08/17 08:17:55;;;;;;;1.60;1.50;;;;;;;25.03;61.18;97020.88;5047943;28;20223;-21
2022/08/17 08:20:29;;;;;;;1.70;1.60;;;;;;;25.03;61.39;97026.00;5048832;28;20663;-20
2022/08/17 08:23:19;;;;;;;1.70;1.60;;;;;;;25.03;61.62;97026.00;5027382;28;20217;-21
2022/08/17 08:26:20;;;;;;;1.80;1.70;;;;;;;25.03;61.10;97028.59;5030001;28;20291;-21
2022/08/17 08:29:00;;;;;;;1.80;1.70;;;;;;;25.04;61.13;97035.44;5047955;28;20338;-21
2022/08/17 08:31:54;;;;;;;1.67;1.57;;;;;;;25.03;61.63;97024.31;5043145;28;20303;-21
2022/08/17 08:34:22;;;;;;;1.70;1.60;;;;;;;25.02;61.15;97022.56;5029698;28;20267;-21
2022/08/17 08:37:18;;;;;;;1.80;1.70;;;;;;;25.03;61.26;97026.00;5039976;28;20219;-21
2022/08/17 08:40:11;;;;;;;1.90;1.80;;;;;;;25.02;61.16;97017.44;5030935;28;20217;-21
2022/08/17 08:42:47;;;;;;;1.70;1.60;;;;;;;24.94;61.50;97011.38;5047600;28;20251;-21
2022/08/17 08:45:20;;;;;;;1.77;1.67;;;;;;;25.02;61.59;97017.44;5023078;28;20251;-21
2022/08/17 08:48:05;;;;;;;1.60;1.50;;;;;;;25.02;61.13;97020.00;5023983;28;20287;-21
2022/08/17 08:50:56;;;;;;;1.80;1.70;;;;;;;24.93;61.51;96993.38;5047317;28;20211;-21
2022/08/17 08:53:50;;;;;;;1.73;1.63;;;;;;;25.03;61.14;97008.03;5030041;28;20200;-21
2022/08/17 08:56:24;;;;;;;1.50;1.40;;;;;;;25.03;61.27;97003.75;5026337;28;20240;-22
2022/08/17 08:58:55;;;;;;;1.80;1.70;;;;;;;25.03;61.22;97002.88;5047598;28;20288;-21
2022/08/17 09:01:45;;;;;;;1.60;1.50;;;;;;;24.93;61.26;96980.53;5029569;28;20292;-21
2022/08/17 09:04:41;;;;;;;1.80;1.70;;;;;;;25.03;61.17;96995.16;5026359;28;20274;-21
2022/08/17 09:07:43;;;;;;;1.60;1.50;;;;;;;25.02;61.59;96999.44;4985116;28;20681;-21
2022/08/17 09:10:24;;;;;;;1.87;1.77;;;;;;;25.01;61.44;96994.28;5045084;28;20628;-21
2022/08/17 09:13:07;;;;;;;1.63;1.53;;;;;;;25.00;60.94;96987.44;5015415;28;20243;-21
2022/08/17 09:15:45;;;;;;;1.50;1.40;;;;;;;25.02;61.46;96991.72;5033763;28;20639;-23
2022/08/17 09:18:20;;;;;;;1.57;1.47;;;;;;;25.03;61.31;96990.88;5017501;28;20251;-23
2022/08/17 09:21:12;;;;;;;1.60;1.50;;;;;;;25.02;61.08;96993.44;5022534;28;20204;-23
2022/08/17 09:23:58;;;;;;;1.40;1.30;;;;;;;25.02;61.55;96981.44;5033604;28;20213;-24
2022/08/17 09:27:03;;;;;;;1.70;1.60;;;;;;;25.02;61.15;96989.16;5028024;28;20204;-23
2022/08/17 09:29:33;;;;;;;1.77;1.67;;;;;;;25.02;61.61;96978.03;5027099;28;20624;-23
2022/08/17 09:32:22;;;;;;;1.60;1.50;;;;;;;25.02;61.39;96973.72;5051147;28;20209;-28
2022/08/17 09:34:52;;;;;;;1.60;1.50;;;;;;;25.02;61.57;96968.59;5048089;28;20299;-23
2022/08/17 09:37:26;;;;;;;1.73;1.63;;;;;;;25.02;61.45;96960.88;5050530;28;20317;-23
2022/08/17 09:40:10;;;;;;;1.97;1.87;;;;;;;25.03;61.21;96962.59;5013278;28;20288;-23
2022/08/17 09:43:14;;;;;;;1.70;1.60;;;;;;;25.03;61.31;96969.44;5032879;28;20205;-23
2022/08/17 09:45:49;;;;;;;1.60;1.50;;;;;;;24.81;61.36;96931.59;5050321;28;20653;-23
2022/08/17 09:48:19;;;;;;;1.70;1.60;;;;;;;25.03;61.45;96972.91;5033486;28;20741;-23
2022/08/17 09:50:54;;;;;;;1.70;1.60;;;;;;;25.03;61.25;96967.75;5032795;28;20295;-32
2022/08/17 09:53:32;;;;;;;1.70;1.60;;;;;;;24.95;61.17;96964.25;5046026;28;20232;-23
2022/08/17 09:56:13;;;;;;;1.80;1.70;;;;;;;24.92;61.27;96953.09;5022111;28;20268;-23
2022/08/17 09:59:07;;;;;;;1.70;1.60;;;;;;;25.02;61.10;96973.72;5029934;28;20256;-23
2022/08/17 10:01:37;;;;;;;1.87;1.77;;;;;;;25.03;61.54;96972.03;5028378;28;20270;-23
2022/08/17 10:04:25;;;;;;;1.70;1.60;;;;;;;24.71;61.15;96912.69;5049965;28;20585;-23
2022/08/17 10:07:10;;;;;;;1.60;1.50;;;;;;;25.03;61.47;96974.59;5033089;28;20205;-23
2022/08/17 10:09:55;;;;;;;1.67;1.57;;;;;;;25.03;61.33;96972.91;5050293;28;20295;-23
2022/08/17 10:12:37;;;;;;;1.60;1.50;;;;;;;25.02;61.15;96972.88;5029305;28;20300;-24
2022/08/17 10:15:14;;;;;;;1.80;1.70;;;;;;;25.03;61.39;96974.59;5033117;28;20355;-23
2022/08/17 10:17:49;;;;;;;1.70;1.60;;;;;;;24.96;61.32;96965.97;5049828;28;20366;-23
2022/08/17 10:20:32;;;;;;;1.60;1.50;;;;;;;25.03;61.56;96969.44;5032620;28;20211;-27
2022/08/17 10:28:35;;;;;;;1.60;1.50;;;;;;;25.04;61.20;96956.59;5019423;28;20225;-23
2022/08/17 10:31:02;;;;;;;1.70;1.60;;;;;;;25.04;61.40;96946.31;5015558;28;20323;-23
2022/08/17 10:34:31;;;;;;;1.60;1.50;;;;;;;25.04;61.35;96932.59;5026855;28;20205;-23
2022/08/17 10:37:29;;;;;;;1.57;1.47;;;;;;;24.79;61.55;96887.91;5025309;28;20212;-24
2022/08/17 10:40:26;;;;;;;1.60;1.50;;;;;;;25.03;61.38;96939.47;5031060;28;20284;-23
2022/08/17 10:42:57;;;;;;;1.50;1.40;;;;;;;25.02;61.59;96935.16;5049485;28;20209;-29
2022/08/17 10:45:33;;;;;;;1.70;1.60;;;;;;;25.03;61.10;96948.88;5031153;28;20308;-33
2022/08/17 10:48:02;;;;;;;1.80;1.70;;;;;;;25.03;61.14;96944.63;5050017;28;20575;-23
2022/08/17 10:50:56;;;;;;;1.70;1.60;;;;;;;25.03;61.58;96938.59;5049598;28;20213;-23
2022/08/17 10:53:32;;;;;;;1.63;1.53;;;;;;;25.03;61.06;96946.31;5033365;28;20200;-23
2022/08/17 10:56:10;;;;;;;1.60;1.50;;;;;;;25.03;61.50;96948.88;5049568;28;20283;-23
2022/08/17 10:58:52;;;;;;;1.60;1.50;;;;;;;25.01;61.46;96940.28;5045751;28;20290;-23
2022/08/17 11:01:31;;;;;;;1.60;1.50;;;;;;;25.02;61.58;96948.00;5043037;28;20247;-23
2022/08/17 11:04:20;;;;;;;1.57;1.47;;;;;;;25.02;61.08;96945.44;5049032;28;20243;-23
2022/08/17 11:07:07;;;;;;;1.63;1.53;;;;;;;25.02;61.17;96953.16;5031006;28;20212;-23
2022/08/17 11:09:55;;;;;;;1.60;1.50;;;;;;;25.03;61.42;96961.75;5030735;28;20323;-23
2022/08/17 11:12:37;;;;;;;1.50;1.40;;;;;;;25.04;61.09;96960.88;5048791;28;20295;-23
2022/08/17 11:15:31;;;;;;;1.40;1.30;;;;;;;25.03;61.16;96959.16;5038546;28;20320;-23
2022/08/17 11:18:31;;;;;;;1.67;1.57;;;;;;;25.04;60.97;96960.88;5048899;28;20308;-23
2022/08/17 11:21:19;;;;;;;1.60;1.50;;;;;;;25.04;61.11;96955.75;5030673;28;20295;-23
2022/08/17 11:24:04;;;;;;;1.50;1.40;;;;;;;25.04;61.12;96956.59;5048849;28;20307;-23
2022/08/17 11:26:33;;;;;;;1.60;1.50;;;;;;;25.04;61.07;96948.03;5043130;28;20292;-26
2022/08/17 11:29:04;;;;;;;1.70;1.60;;;;;;;25.04;61.06;96951.47;5030543;28;20243;-32
2022/08/17 11:31:37;;;;;;;1.60;1.50;;;;;;;24.96;61.12;96937.69;5015166;28;20211;-23
2022/08/17 11:34:08;;;;;;;1.50;1.40;;;;;;;25.04;61.03;96950.59;5030973;28;20302;-25
2022/08/17 11:36:37;;;;;;;1.70;1.60;;;;;;;25.03;61.34;96946.31;5030218;28;20209;-23
2022/08/17 11:39:19;;;;;;;1.70;1.60;;;;;;;24.96;61.44;96936.84;5048519;28;20256;-23
2022/08/17 11:41:58;;;;;;;1.70;1.60;;;;;;;25.03;61.03;96947.19;5028312;28;20284;-23
2022/08/17 11:44:24;;;;;;;1.80;1.70;;;;;;;25.03;61.43;96939.47;5048657;28;20327;-23
2022/08/17 11:53:00;;;;;;;1.70;1.60;;;;;;;25.03;61.48;96931.75;5048265;28;20259;-23
2022/08/17 11:55:30;;;;;;;1.67;1.57;;;;;;;25.03;61.46;96928.31;5029826;28;20228;-28
2022/08/17 11:58:27;;;;;;;1.60;1.50;;;;;;;25.04;61.46;96932.59;5047973;28;20226;-23
2022/08/17 12:00:59;;;;;;;1.53;1.43;;;;;;;25.04;61.48;96930.91;5035898;28;20292;-23
2022/08/17 12:03:32;;;;;;;1.60;1.50;;;;;;;25.04;61.12;96942.88;5047815;28;20646;-23
2022/08/17 12:06:04;;;;;;;1.77;1.67;;;;;;;25.04;61.36;96951.47;5046638;28;20216;-23
2022/08/17 12:08:32;;;;;;;1.70;1.60;;;;;;;25.04;61.15;96951.47;5048307;28;20259;-23
2022/08/17 12:11:11;;;;;;;1.60;1.50;;;;;;;25.04;61.30;96951.47;5012224;28;20225;-23
2022/08/17 12:13:45;;;;;;;1.70;1.60;;;;;;;24.74;61.18;96891.28;5031502;28;20229;-23
2022/08/17 12:16:16;;;;;;;1.80;1.70;;;;;;;25.04;61.19;96948.03;5022908;28;20236;-23
2022/08/17 12:19:01;;;;;;;1.53;1.43;;;;;;;25.05;61.39;96934.34;5029926;28;20222;-23
2022/08/17 12:21:45;;;;;;;1.60;1.50;;;;;;;25.05;61.10;96944.63;5042297;28;20684;-23
2022/08/17 12:24:21;;;;;;;1.70;1.60;;;;;;;25.04;61.12;96950.59;5030005;28;20233;-23
2022/08/17 12:26:55;;;;;;;1.60;1.50;;;;;;;25.05;61.42;96954.91;5035369;28;20649;-23
2022/08/17 12:29:21;;;;;;;1.70;1.60;;;;;;;24.95;61.27;96932.53;5010818;28;20225;-29
2022/08/17 12:32:05;;;;;;;1.60;1.50;;;;;;;25.03;61.06;96944.63;5032000;28;20196;-23
2022/08/17 12:34:39;;;;;;;1.60;1.50;;;;;;;24.95;61.03;96933.41;5029667;28;20275;-23
2022/08/17 12:37:30;;;;;;;1.80;1.70;;;;;;;25.03;60.98;96942.03;5013980;28;20205;-24
2022/08/17 12:40:03;;;;;;;1.53;1.43;;;;;;;24.96;61.31;96918.84;5046273;28;20649;-23